M I D A S
Marine Information and Data Acquisition System
Tripno 1162 of the Zeeleeuw from 2006-09-08 09:17:16 to 2006-09-08 13:34:01
Back to CruiseResearch ActivitiesStationsMapUnderway DataData graphs

EquipmentUnitsComment
TimeDGPSUTC
LatitudeDGPSDM.mWGS84
LongitudeDGPSDM.mWGS84
HeadingGyrodeg 
SOGDGPSknotsSpeed over ground
COGDGPSdegCourse over ground
DepthEcho soundermeters200 kHz
Missing or incorrect values are displayed as -999
Navigation data collected by the RV Zeeleeuw from 2006-09-08 07:01:20 to 2006-09-08 13:47:31
                                                                                    Next 1000 lines
Time Latitude Longitude Heading SOG COG Depth
2006-09-08 07:01:30 51°13.596 2°56.091 100.9 0.6 279 6.3
2006-09-08 07:01:35 51°13.596 2°56.089 100.9 0.8 277 6.4
2006-09-08 07:01:40 51°13.597 2°56.086 101 1 281 6.5
2006-09-08 07:01:45 51°13.597 2°56.084 101.3 1.1 280 6.5
2006-09-08 07:01:50 51°13.597 2°56.081 101.4 1.3 282 4.8
2006-09-08 07:01:55 51°13.598 2°56.077 101.4 1.6 281 -999
2006-09-08 07:02:00 51°13.598 2°56.073 101.4 1.8 280 -999
2006-09-08 07:02:06 51°13.598 2°56.069 101.4 1.8 279 -999
2006-09-08 07:02:11 51°13.599 2°56.065 101.1 1.7 278 -999
2006-09-08 07:02:16 51°13.599 2°56.062 100.5 1.6 279 -999
2006-09-08 07:02:20 51°13.599 2°56.06 99.8 1.3 276 -999
2006-09-08 07:02:26 51°13.599 2°56.058 99.5 0.8 274 -999
2006-09-08 07:02:30 51°13.599 2°56.058 99.5 -999 162 -999
2006-09-08 07:02:36 51°13.599 2°56.06 100.2 0.6 107 -999
2006-09-08 07:02:40 51°13.599 2°56.061 100.3 0.9 108 4.7
2006-09-08 07:02:45 51°13.598 2°56.064 100.1 1.1 99 4.8
2006-09-08 07:02:50 51°13.598 2°56.068 99.4 1.7 106 7.7
2006-09-08 07:02:55 51°13.597 2°56.072 99.9 2.1 98 7.6
2006-09-08 07:02:59 51°13.596 2°56.076 102.8 2.1 109 7.4
2006-09-08 07:03:04 51°13.596 2°56.08 105.2 2 101 5.4
2006-09-08 07:03:09 51°13.595 2°56.084 106.9 1.9 110 7
2006-09-08 07:03:14 51°13.594 2°56.088 108.2 1.9 103 6.8
2006-09-08 07:03:19 51°13.594 2°56.092 109 1.8 111 6.7
2006-09-08 07:03:24 51°13.593 2°56.096 109.8 1.9 103 6.6
2006-09-08 07:03:30 51°13.592 2°56.1 110.9 1.8 113 6.6
2006-09-08 07:03:35 51°13.591 2°56.103 111.9 1.7 111 6.6
2006-09-08 07:03:40 51°13.59 2°56.106 113 1.2 113 6.7
2006-09-08 07:03:45 51°13.59 2°56.107 114.6 0.9 108 6.5
2006-09-08 07:03:50 51°13.59 2°56.109 116.6 0.8 119 6.6
2006-09-08 07:03:55 51°13.589 2°56.111 118.3 0.8 111 6.5
2006-09-08 07:03:59 51°13.589 2°56.112 120 0.8 120 6.5
2006-09-08 07:04:05 51°13.588 2°56.114 121.8 0.8 116 6.5
2006-09-08 07:04:10 51°13.588 2°56.115 123.3 0.6 123 6.5
2006-09-08 07:04:15 51°13.587 2°56.116 124.8 0.7 114 6.5
2006-09-08 07:04:20 51°13.587 2°56.118 126.3 0.9 125 6.5
2006-09-08 07:04:25 51°13.586 2°56.12 127.1 1 125 6.6
2006-09-08 07:04:30 51°13.585 2°56.121 128.1 0.5 129 6.6
2006-09-08 07:04:35 51°13.585 2°56.121 128.5 0.2 120 6.6
2006-09-08 07:04:40 51°13.585 2°56.121 128.6 0.2 148 6.6
2006-09-08 07:04:44 51°13.585 2°56.121 128.8 0.2 144 6.7
2006-09-08 07:04:49 51°13.585 2°56.122 129.2 0.2 136 6.7
2006-09-08 07:04:54 51°13.584 2°56.122 129.8 0.2 168 6.7
2006-09-08 07:05:00 51°13.584 2°56.122 130.4 0.2 115 6.7
2006-09-08 07:05:04 51°13.584 2°56.122 130.8 0.3 153 6.7
2006-09-08 07:05:10 51°13.584 2°56.123 131.3 0.3 128 6.8
2006-09-08 07:05:15 51°13.583 2°56.123 132.1 0.3 153 6.8
2006-09-08 07:05:20 51°13.583 2°56.124 132.8 0.3 133 6.9
2006-09-08 07:05:25 51°13.582 2°56.124 133.6 0.5 136 6.9
2006-09-08 07:05:30 51°13.582 2°56.125 134.2 0.6 136 7
2006-09-08 07:05:35 51°13.581 2°56.126 134.2 0.6 135 5.3
2006-09-08 07:05:40 51°13.581 2°56.127 134.2 0.5 135 7.1
2006-09-08 07:05:44 51°13.58 2°56.128 134.2 0.5 135 7.1
2006-09-08 07:05:50 51°13.58 2°56.129 134.2 0.5 132 7.1
2006-09-08 07:05:55 51°13.579 2°56.129 134.2 0.5 133 7.1
2006-09-08 07:06:00 51°13.579 2°56.13 134.1 0.5 129 7.2
2006-09-08 07:06:04 51°13.578 2°56.131 133.7 0.5 131 7.2
2006-09-08 07:06:10 51°13.578 2°56.132 133.5 0.5 126 7.2
2006-09-08 07:06:15 51°13.578 2°56.133 133 0.4 108 7.2
2006-09-08 07:06:20 51°13.578 2°56.133 132.6 0.3 100 7.2
2006-09-08 07:06:25 51°13.578 2°56.133 130.6 0.3 80 7.2
2006-09-08 07:06:30 51°13.578 2°56.134 128.4 0.2 79 5.4
2006-09-08 07:06:35 51°13.578 2°56.134 126.4 0.2 88 7.2
2006-09-08 07:06:40 51°13.578 2°56.135 125.1 0.2 71 5.4
2006-09-08 07:06:45 51°13.578 2°56.135 123.4 0.1 97 7.2
2006-09-08 07:06:50 51°13.578 2°56.135 122.5 0.1 56 7.3
2006-09-08 07:06:55 51°13.578 2°56.135 121.9 0.1 75 7.4
2006-09-08 07:07:00 51°13.578 2°56.135 121.4 0.1 20 7.4
2006-09-08 07:07:05 51°13.578 2°56.135 120.9 -999 20 7.5
2006-09-08 07:07:10 51°13.579 2°56.136 120.4 0.1 27 7.4
2006-09-08 07:07:15 51°13.579 2°56.136 119.9 -999 48 7.4
2006-09-08 07:07:20 51°13.579 2°56.136 119.6 0.1 30 7.5
2006-09-08 07:07:25 51°13.579 2°56.136 119.3 0.1 28 7.4
2006-09-08 07:07:30 51°13.578 2°56.136 119.2 0.3 197 7.5
2006-09-08 07:07:34 51°13.579 2°56.136 121.3 0.1 35 7.4
2006-09-08 07:07:40 51°13.579 2°56.135 122.8 0.1 275 7.5
2006-09-08 07:07:45 51°13.579 2°56.136 124 0.1 10 7.4
2006-09-08 07:07:50 51°13.579 2°56.135 124.8 -999 195 7.4
2006-09-08 07:07:55 51°13.579 2°56.136 125.9 -999 140 7.4
2006-09-08 07:08:00 51°13.579 2°56.136 127 -999 193 7.4
2006-09-08 07:08:05 51°13.579 2°56.136 127.7 -999 85 7.4
2006-09-08 07:08:10 51°13.579 2°56.135 128.1 -999 288 7.4
2006-09-08 07:08:15 51°13.579 2°56.135 128.5 -999 253 7.4
2006-09-08 07:08:19 51°13.579 2°56.136 128.5 0.1 163 7.4
2006-09-08 07:08:25 51°13.579 2°56.136 128.5 -999 167 7.4
2006-09-08 07:08:30 51°13.579 2°56.136 128.7 0.1 218 7.4
2006-09-08 07:08:35 51°13.579 2°56.136 129.1 0.1 244 5.5
2006-09-08 07:08:40 51°13.579 2°56.136 129.5 0.1 255 7.3
2006-09-08 07:08:45 51°13.579 2°56.136 129.6 0.1 249 7.3
2006-09-08 07:08:50 51°13.579 2°56.135 129.9 0.1 270 5.5
2006-09-08 07:08:55 51°13.579 2°56.135 130.1 -999 260 7.3
2006-09-08 07:09:00 51°13.579 2°56.135 130.2 -999 187 7.3
2006-09-08 07:09:05 51°13.579 2°56.135 130.3 -999 158 7.3
2006-09-08 07:09:10 51°13.579 2°56.135 130.3 -999 135 7.3
2006-09-08 07:09:15 51°13.579 2°56.135 130.3 -999 101 7.3
2006-09-08 07:09:20 51°13.579 2°56.135 130.3 -999 324 7.4
2006-09-08 07:09:25 51°13.579 2°56.135 130.3 -999 70 7.4
2006-09-08 07:09:30 51°13.579 2°56.136 130.3 -999 47 7.4
2006-09-08 07:09:35 51°13.579 2°56.136 130.2 -999 78 7.4
2006-09-08 07:09:40 51°13.579 2°56.136 130 0.1 57 7.4
2006-09-08 07:09:44 51°13.579 2°56.136 129.8 -999 59 7.5
2006-09-08 07:09:50 51°13.579 2°56.136 129.6 0.1 59 -999
2006-09-08 07:09:55 51°13.579 2°56.136 129.2 -999 346 7.4
2006-09-08 07:10:00 51°13.579 2°56.136 129.1 0.1 51 7.4
2006-09-08 07:10:05 51°13.579 2°56.136 128.8 0.1 53 7.4
2006-09-08 07:10:10 51°13.579 2°56.136 128.2 0.1 69 7.4
2006-09-08 07:10:15 51°13.58 2°56.136 127.7 -999 85 5.5
2006-09-08 07:10:19 51°13.58 2°56.136 127.6 -999 35 7.4
2006-09-08 07:10:25 51°13.58 2°56.136 127.5 0.1 52 7.4
2006-09-08 07:10:30 51°13.58 2°56.136 127.1 -999 103 7.4
2006-09-08 07:10:33 51°13.58 2°56.137 126.7 0.1 42 7.4
2006-09-08 07:10:40 51°13.58 2°56.137 126.7 -999 114 5.5
2006-09-08 07:10:45 51°13.58 2°56.136 126.2 -999 176 7.3
2006-09-08 07:10:50 51°13.579 2°56.136 126.2 -999 125 5.4
2006-09-08 07:10:54 51°13.579 2°56.136 126.2 -999 195 7.3
2006-09-08 07:11:00 51°13.579 2°56.135 126.2 -999 277 7.3
2006-09-08 07:11:05 51°13.579 2°56.136 126.2 -999 197 7.3
2006-09-08 07:11:10 51°13.579 2°56.136 126.2 -999 181 7.3
2006-09-08 07:11:15 51°13.579 2°56.136 126.2 -999 112 5.5
2006-09-08 07:11:20 51°13.579 2°56.136 126.2 -999 273 7.3
2006-09-08 07:11:24 51°13.579 2°56.136 126.3 -999 146 5.4
2006-09-08 07:11:30 51°13.579 2°56.135 126.3 -999 277 7.3
2006-09-08 07:11:35 51°13.579 2°56.135 126.3 -999 213 7.3
2006-09-08 07:11:40 51°13.579 2°56.135 126.3 -999 132 7.3
2006-09-08 07:11:44 51°13.579 2°56.135 126.3 -999 120 7.3
2006-09-08 07:11:49 51°13.579 2°56.135 126.3 -999 122 7.3
2006-09-08 07:11:53 51°13.579 2°56.136 126.3 -999 294 7.3
2006-09-08 07:12:00 51°13.58 2°56.136 126.3 -999 330 7.4
2006-09-08 07:12:05 51°13.579 2°56.136 126.3 -999 108 7.3
2006-09-08 07:12:10 51°13.579 2°56.136 126.3 -999 108 5.4
2006-09-08 07:12:15 51°13.579 2°56.136 126.3 -999 255 7.4
2006-09-08 07:12:20 51°13.58 2°56.136 126.3 -999 145 7.3
2006-09-08 07:12:25 51°13.58 2°56.136 126.3 -999 108 7.4
2006-09-08 07:12:30 51°13.58 2°56.137 126.3 -999 297 7.4
2006-09-08 07:12:35 51°13.58 2°56.137 126.3 -999 118 7.3
2006-09-08 07:12:39 51°13.58 2°56.137 126.3 -999 114 7.3
2006-09-08 07:12:45 51°13.58 2°56.137 126.3 -999 135 5.4
2006-09-08 07:12:50 51°13.58 2°56.137 126.3 -999 113 7.3
2006-09-08 07:12:55 51°13.58 2°56.137 126.3 -999 242 7.4
2006-09-08 07:13:00 51°13.58 2°56.137 126.3 -999 142 7.3
2006-09-08 07:13:05 51°13.58 2°56.137 126.3 -999 278 7.4
2006-09-08 07:13:10 51°13.58 2°56.137 126.3 -999 307 5.4
2006-09-08 07:13:15 51°13.58 2°56.137 126.3 -999 272 7.3
2006-09-08 07:13:20 51°13.58 2°56.137 126.3 -999 165 5.5
2006-09-08 07:13:25 51°13.58 2°56.137 126.3 -999 139 7.3
2006-09-08 07:13:30 51°13.58 2°56.136 126.3 -999 111 7.3
2006-09-08 07:13:35 51°13.58 2°56.136 126.3 -999 122 7.3
2006-09-08 07:13:40 51°13.58 2°56.137 126.3 -999 135 7.4
2006-09-08 07:13:45 51°13.58 2°56.136 126.3 -999 283 5.5
2006-09-08 07:13:50 51°13.58 2°56.136 126.3 -999 143 7.3
2006-09-08 07:13:55 51°13.58 2°56.136 126.3 -999 310 7.4
2006-09-08 07:14:00 51°13.58 2°56.136 126.3 -999 124 7.4
2006-09-08 07:14:05 51°13.58 2°56.136 126.3 -999 149 7.4
2006-09-08 07:14:10 51°13.58 2°56.136 126.3 -999 178 5.5
2006-09-08 07:14:15 51°13.58 2°56.136 126.3 -999 295 7.5
2006-09-08 07:14:20 51°13.58 2°56.137 126.3 -999 224 7.3
2006-09-08 07:14:25 51°13.58 2°56.137 126.3 -999 243 7.4
2006-09-08 07:14:30 51°13.58 2°56.137 126.3 -999 116 7.3
2006-09-08 07:14:35 51°13.58 2°56.137 126.3 -999 136 5.5
2006-09-08 07:14:40 51°13.58 2°56.137 126.3 -999 207 7.3
2006-09-08 07:14:45 51°13.58 2°56.137 126.3 -999 304 7.3
2006-09-08 07:14:50 51°13.58 2°56.137 126.3 -999 212 7.3
2006-09-08 07:14:55 51°13.58 2°56.137 126.3 -999 153 7.4
2006-09-08 07:14:59 51°13.58 2°56.136 126.2 -999 247 5.5
2006-09-08 07:15:05 51°13.58 2°56.137 126.2 -999 262 7.3
2006-09-08 07:15:10 51°13.58 2°56.137 126.2 -999 17 7.3
2006-09-08 07:15:15 51°13.58 2°56.137 126.2 -999 120 7.3
2006-09-08 07:15:20 51°13.581 2°56.137 126.2 -999 270 7.4
2006-09-08 07:15:25 51°13.581 2°56.137 126.2 -999 179 5.5
2006-09-08 07:15:30 51°13.581 2°56.137 126.2 -999 289 7.3
2006-09-08 07:15:35 51°13.581 2°56.137 126.2 -999 107 7.3
2006-09-08 07:15:40 51°13.581 2°56.137 126.2 -999 132 7.3
2006-09-08 07:15:45 51°13.581 2°56.137 126.2 -999 160 7.4
2006-09-08 07:15:50 51°13.581 2°56.137 126.2 -999 236 5.4
2006-09-08 07:15:55 51°13.58 2°56.137 126.2 -999 300 7.4
2006-09-08 07:16:00 51°13.58 2°56.137 126.2 -999 314 7.3
2006-09-08 07:16:04 51°13.58 2°56.137 126.2 -999 4 7.4
2006-09-08 07:16:10 51°13.58 2°56.137 126.2 -999 103 7.3
2006-09-08 07:16:15 51°13.58 2°56.137 126.2 -999 279 5.5
2006-09-08 07:16:20 51°13.58 2°56.137 126.2 -999 256 7.3
2006-09-08 07:16:25 51°13.58 2°56.137 126.2 -999 311 7.3
2006-09-08 07:16:30 51°13.58 2°56.137 126.2 -999 292 7.3
2006-09-08 07:16:35 51°13.58 2°56.137 126.2 -999 58 7.4
2006-09-08 07:16:39 51°13.58 2°56.137 126.2 -999 120 5.4
2006-09-08 07:16:44 51°13.58 2°56.137 126.2 -999 297 7.4
2006-09-08 07:16:50 51°13.58 2°56.137 126.2 -999 356 7.5
2006-09-08 07:16:55 51°13.58 2°56.137 126.2 -999 185 7.4
2006-09-08 07:17:00 51°13.58 2°56.137 126.2 -999 157 7.5
2006-09-08 07:17:05 51°13.58 2°56.137 126.2 -999 102 7.5
2006-09-08 07:17:10 51°13.58 2°56.137 126.2 -999 210 7.4
2006-09-08 07:17:15 51°13.58 2°56.137 126.2 -999 154 -999
2006-09-08 07:17:20 51°13.58 2°56.137 126.2 -999 141 7.4
2006-09-08 07:17:24 51°13.58 2°56.137 126.2 -999 262 7.4
2006-09-08 07:17:30 51°13.58 2°56.137 126.2 -999 85 7.4
2006-09-08 07:17:35 51°13.58 2°56.137 126.2 -999 115 7.3
2006-09-08 07:17:40 51°13.58 2°56.137 126.2 -999 277 -999
2006-09-08 07:17:45 51°13.58 2°56.137 126.2 -999 304 7.5
2006-09-08 07:17:50 51°13.58 2°56.137 126.2 -999 247 7.4
2006-09-08 07:17:55 51°13.58 2°56.137 126.2 -999 294 7.3
2006-09-08 07:18:00 51°13.58 2°56.137 126.2 -999 23 7.4
2006-09-08 07:18:04 51°13.58 2°56.137 126.2 -999 272 5.5
2006-09-08 07:18:10 51°13.58 2°56.136 126.2 -999 276 7.3
2006-09-08 07:18:15 51°13.58 2°56.136 126.2 -999 98 5.5
2006-09-08 07:18:20 51°13.58 2°56.136 126.2 -999 293 7.4
2006-09-08 07:18:24 51°13.58 2°56.136 126.2 -999 281 7.4
2006-09-08 07:18:30 51°13.58 2°56.136 126.2 -999 299 7.4
2006-09-08 07:18:35 51°13.58 2°56.136 126.2 -999 110 7.4
2006-09-08 07:18:40 51°13.58 2°56.136 126.2 -999 134 7.3
2006-09-08 07:18:45 51°13.58 2°56.136 126.2 -999 210 7.3
2006-09-08 07:18:50 51°13.58 2°56.136 126.2 -999 294 5.5
2006-09-08 07:18:55 51°13.58 2°56.136 126.2 -999 116 7.4
2006-09-08 07:19:00 51°13.58 2°56.136 126.1 -999 275 7.4
2006-09-08 07:19:05 51°13.58 2°56.136 126.1 -999 269 7.3
2006-09-08 07:19:10 51°13.58 2°56.136 126.1 -999 111 7.4
2006-09-08 07:19:15 51°13.58 2°56.136 126.1 -999 120 7.4
2006-09-08 07:19:20 51°13.58 2°56.136 126.1 -999 297 7.4
2006-09-08 07:19:25 51°13.58 2°56.136 126.1 -999 277 5.5
2006-09-08 07:19:30 51°13.58 2°56.136 126.1 -999 106 7.4
2006-09-08 07:19:35 51°13.58 2°56.136 126.1 -999 166 7.4
2006-09-08 07:19:40 51°13.58 2°56.136 126.1 -999 259 7.3
2006-09-08 07:19:44 51°13.58 2°56.136 126.1 -999 88 7.3
2006-09-08 07:19:50 51°13.58 2°56.136 126.1 -999 109 5.5
2006-09-08 07:19:55 51°13.58 2°56.136 126.1 -999 236 7.4
2006-09-08 07:20:00 51°13.58 2°56.136 126.1 -999 311 7.4
2006-09-08 07:20:05 51°13.58 2°56.136 126.1 -999 108 7.4
2006-09-08 07:20:10 51°13.58 2°56.136 126.1 -999 273 7.4
2006-09-08 07:20:15 51°13.58 2°56.136 126.1 -999 250 5.4
2006-09-08 07:20:20 51°13.58 2°56.136 126.1 -999 359 7.4
2006-09-08 07:20:24 51°13.58 2°56.136 126 -999 294 7.4
2006-09-08 07:20:30 51°13.58 2°56.136 126 -999 295 7.3
2006-09-08 07:20:34 51°13.58 2°56.136 126 -999 259 7.4
2006-09-08 07:20:39 51°13.58 2°56.136 126 -999 309 5.5
2006-09-08 07:20:45 51°13.58 2°56.136 126 -999 156 7.3
2006-09-08 07:20:50 51°13.58 2°56.136 126 -999 263 7.4
2006-09-08 07:20:55 51°13.58 2°56.136 126 -999 279 7.4
2006-09-08 07:21:00 51°13.58 2°56.136 126 -999 88 7.3
2006-09-08 07:21:04 51°13.58 2°56.136 126 -999 131 5.5
2006-09-08 07:21:10 51°13.58 2°56.136 125.9 -999 288 7.5
2006-09-08 07:21:15 51°13.58 2°56.136 125.9 -999 52 5.5
2006-09-08 07:21:20 51°13.58 2°56.136 125.9 -999 115 7.4
2006-09-08 07:21:25 51°13.58 2°56.136 125.9 -999 305 7.4
2006-09-08 07:21:29 51°13.58 2°56.136 125.9 0.1 289 7.4
2006-09-08 07:21:35 51°13.58 2°56.136 125.9 -999 303 7.4
2006-09-08 07:21:40 51°13.58 2°56.136 125.9 -999 279 5.5
2006-09-08 07:21:44 51°13.58 2°56.136 125.9 -999 138 7.4
2006-09-08 07:21:50 51°13.58 2°56.136 125.9 -999 282 7.4
2006-09-08 07:21:55 51°13.58 2°56.136 125.9 -999 19 7.4
2006-09-08 07:22:00 51°13.58 2°56.136 125.9 -999 124 7.4
2006-09-08 07:22:05 51°13.58 2°56.136 125.9 -999 66 5.5
2006-09-08 07:22:10 51°13.58 2°56.136 125.9 -999 239 7.4
2006-09-08 07:22:15 51°13.58 2°56.136 125.9 -999 296 7.4
2006-09-08 07:22:20 51°13.58 2°56.136 125.9 -999 290 7.3
2006-09-08 07:22:25 51°13.58 2°56.136 125.9 -999 327 7.4
2006-09-08 07:22:30 51°13.581 2°56.136 125.8 -999 170 7.4
2006-09-08 07:22:35 51°13.58 2°56.136 125.8 -999 239 7.4
2006-09-08 07:22:40 51°13.58 2°56.136 125.8 -999 85 5.5
2006-09-08 07:22:45 51°13.58 2°56.136 125.8 -999 237 7.4
2006-09-08 07:22:50 51°13.58 2°56.136 125.8 -999 305 7.4
2006-09-08 07:22:55 51°13.58 2°56.136 125.8 -999 290 7.4
2006-09-08 07:23:00 51°13.58 2°56.137 125.8 -999 110 7.4
2006-09-08 07:23:05 51°13.58 2°56.137 125.8 -999 181 5.5
2006-09-08 07:23:10 51°13.58 2°56.137 125.8 -999 306 7.4
2006-09-08 07:23:15 51°13.58 2°56.137 125.8 0.1 107 7.5
2006-09-08 07:23:20 51°13.58 2°56.137 125.8 -999 118 7.5
2006-09-08 07:23:24 51°13.58 2°56.137 125.8 -999 298 7.5
2006-09-08 07:23:30 51°13.58 2°56.137 125.8 -999 308 5.5
2006-09-08 07:23:35 51°13.58 2°56.137 125.8 -999 207 7.4
2006-09-08 07:23:40 51°13.58 2°56.137 125.8 -999 96 7.5
2006-09-08 07:23:44 51°13.58 2°56.136 125.8 -999 282 7.4
2006-09-08 07:23:50 51°13.58 2°56.136 125.8 -999 312 7.4
2006-09-08 07:23:55 51°13.58 2°56.137 125.8 -999 138 5.5
2006-09-08 07:24:00 51°13.58 2°56.136 125.8 -999 169 7.4
2006-09-08 07:24:05 51°13.58 2°56.136 125.8 -999 79 7.5
2006-09-08 07:24:10 51°13.58 2°56.136 125.8 -999 113 7.4
2006-09-08 07:24:15 51°13.58 2°56.136 125.8 -999 275 7.5
2006-09-08 07:24:20 51°13.58 2°56.136 125.8 -999 293 5.5
2006-09-08 07:24:25 51°13.581 2°56.136 125.8 -999 301 7.3
2006-09-08 07:24:30 51°13.58 2°56.136 125.8 -999 287 7.4
2006-09-08 07:24:35 51°13.58 2°56.136 125.8 -999 132 7.5
2006-09-08 07:24:40 51°13.58 2°56.136 125.8 -999 127 7.4
2006-09-08 07:24:45 51°13.58 2°56.136 125.8 -999 121 7.5
2006-09-08 07:24:50 51°13.58 2°56.136 125.8 -999 249 7.4
2006-09-08 07:24:55 51°13.58 2°56.136 125.8 -999 22 -999
2006-09-08 07:25:00 51°13.58 2°56.136 125.8 -999 288 7.4
2006-09-08 07:25:05 51°13.58 2°56.136 125.8 -999 280 7.4
2006-09-08 07:25:10 51°13.58 2°56.136 125.8 -999 293 7.5
2006-09-08 07:25:15 51°13.58 2°56.136 125.8 -999 354 7.4
2006-09-08 07:25:20 51°13.58 2°56.136 125.8 -999 266 5.5
2006-09-08 07:25:25 51°13.58 2°56.136 125.8 -999 29 7.4
2006-09-08 07:25:30 51°13.58 2°56.136 125.8 -999 122 7.5
2006-09-08 07:25:35 51°13.58 2°56.136 125.8 -999 324 7.4
2006-09-08 07:25:40 51°13.58 2°56.136 125.8 -999 336 7.4
2006-09-08 07:25:45 51°13.58 2°56.136 125.8 -999 48 5.5
2006-09-08 07:25:49 51°13.58 2°56.136 125.8 -999 118 7.4
2006-09-08 07:25:55 51°13.58 2°56.136 125.8 -999 130 7.4
2006-09-08 07:26:00 51°13.58 2°56.136 125.7 -999 166 7.4
2006-09-08 07:26:05 51°13.58 2°56.136 125.7 -999 207 7.4
2006-09-08 07:26:10 51°13.58 2°56.136 125.7 -999 140 5.5
2006-09-08 07:26:15 51°13.58 2°56.136 125.7 -999 79 7.4
2006-09-08 07:26:20 51°13.58 2°56.136 125.7 -999 358 7.4
2006-09-08 07:26:24 51°13.58 2°56.136 125.7 -999 100 7.4
2006-09-08 07:26:30 51°13.58 2°56.136 125.7 -999 265 7.4
2006-09-08 07:26:35 51°13.58 2°56.136 125.7 -999 303 5.5
2006-09-08 07:26:40 51°13.58 2°56.136 125.7 -999 141 7.4
2006-09-08 07:26:44 51°13.58 2°56.136 125.7 -999 110 7.4
2006-09-08 07:26:50 51°13.58 2°56.137 125.7 -999 111 7.4
2006-09-08 07:26:55 51°13.58 2°56.137 125.7 -999 108 7.4
2006-09-08 07:27:00 51°13.58 2°56.137 125.7 -999 201 5.5
2006-09-08 07:27:05 51°13.58 2°56.137 125.7 -999 355 7.4
2006-09-08 07:27:10 51°13.58 2°56.137 125.7 -999 279 7.4
2006-09-08 07:27:15 51°13.58 2°56.137 125.7 -999 288 7.4
2006-09-08 07:27:20 51°13.58 2°56.137 125.7 -999 274 7.4
2006-09-08 07:27:25 51°13.58 2°56.136 125.7 0.1 272 7.5
2006-09-08 07:27:30 51°13.58 2°56.136 125.7 -999 293 7.4
2006-09-08 07:27:35 51°13.58 2°56.136 125.7 -999 77 5.5
2006-09-08 07:27:40 51°13.58 2°56.136 125.7 -999 140 7.4
2006-09-08 07:27:45 51°13.58 2°56.136 125.7 -999 224 7.4
2006-09-08 07:27:50 51°13.58 2°56.136 125.7 -999 1 7.4
2006-09-08 07:27:55 51°13.58 2°56.136 125.7 -999 303 7.5
2006-09-08 07:28:00 51°13.58 2°56.136 125.7 -999 307 5.5
2006-09-08 07:28:04 51°13.58 2°56.136 125.7 -999 335 7.5
2006-09-08 07:28:09 51°13.58 2°56.136 125.7 -999 117 7.5
2006-09-08 07:28:15 51°13.58 2°56.136 125.7 -999 112 7.5
2006-09-08 07:28:20 51°13.58 2°56.136 125.7 -999 263 7.5
2006-09-08 07:28:25 51°13.581 2°56.136 125.7 -999 317 5.5
2006-09-08 07:28:30 51°13.581 2°56.136 125.7 -999 347 7.4
2006-09-08 07:28:35 51°13.581 2°56.136 125.7 -999 74 7.4
2006-09-08 07:28:40 51°13.581 2°56.136 125.7 -999 266 7.4
2006-09-08 07:28:45 51°13.581 2°56.136 125.7 -999 311 7.4
2006-09-08 07:28:50 51°13.581 2°56.136 125.7 -999 12 5.5
2006-09-08 07:28:55 51°13.581 2°56.136 125.7 -999 49 7.4
2006-09-08 07:29:00 51°13.581 2°56.136 125.7 -999 136 7.5
2006-09-08 07:29:04 51°13.581 2°56.136 125.7 -999 299 7.5
2006-09-08 07:29:10 51°13.581 2°56.136 125.7 -999 157 7.5
2006-09-08 07:29:15 51°13.581 2°56.136 125.7 -999 195 5.5
2006-09-08 07:29:20 51°13.581 2°56.136 125.7 -999 302 7.5
2006-09-08 07:29:24 51°13.581 2°56.136 125.7 -999 305 7.5
2006-09-08 07:29:30 51°13.58 2°56.136 125.7 -999 283 7.5
2006-09-08 07:29:35 51°13.58 2°56.136 125.7 -999 77 7.5
2006-09-08 07:29:40 51°13.58 2°56.136 125.7 -999 121 7.5
2006-09-08 07:29:45 51°13.58 2°56.136 125.7 -999 107 7.5
2006-09-08 07:29:50 51°13.58 2°56.136 125.7 -999 130 5.5
2006-09-08 07:29:55 51°13.58 2°56.136 125.7 -999 77 7.5
2006-09-08 07:30:00 51°13.58 2°56.136 125.7 -999 195 7.5
2006-09-08 07:30:05 51°13.581 2°56.136 125.7 -999 310 7.5
2006-09-08 07:30:09 51°13.581 2°56.136 125.7 -999 336 7.5
2006-09-08 07:30:15 51°13.581 2°56.136 125.7 -999 50 5.5
2006-09-08 07:30:20 51°13.581 2°56.136 125.7 -999 105 7.5
2006-09-08 07:30:25 51°13.581 2°56.136 125.7 -999 285 7.5
2006-09-08 07:30:30 51°13.581 2°56.137 125.7 -999 115 7.5
2006-09-08 07:30:35 51°13.581 2°56.136 125.7 -999 257 7.5
2006-09-08 07:30:40 51°13.581 2°56.137 125.7 -999 313 5.5
2006-09-08 07:30:44 51°13.581 2°56.137 125.7 -999 304 7.5
2006-09-08 07:30:49 51°13.581 2°56.137 125.7 -999 36 7.5
2006-09-08 07:30:55 51°13.581 2°56.137 125.7 -999 120 7.5
2006-09-08 07:31:00 51°13.581 2°56.137 125.6 -999 121 7.5
2006-09-08 07:31:05 51°13.581 2°56.137 125.6 -999 349 7.6
2006-09-08 07:31:10 51°13.581 2°56.137 125.6 -999 300 7.6
2006-09-08 07:31:15 51°13.581 2°56.137 125.6 -999 307 5.5
2006-09-08 07:31:20 51°13.581 2°56.137 125.6 -999 103 7.6
2006-09-08 07:31:25 51°13.581 2°56.137 125.6 -999 35 -999
2006-09-08 07:31:30 51°13.581 2°56.137 125.6 -999 113 7.6
2006-09-08 07:31:35 51°13.581 2°56.137 125.6 -999 285 7.5
2006-09-08 07:31:40 51°13.581 2°56.137 125.6 -999 303 7.5
2006-09-08 07:31:43 51°13.581 2°56.136 125.6 -999 3 7.5
2006-09-08 07:31:50 51°13.581 2°56.137 125.6 -999 115 5.6
2006-09-08 07:31:55 51°13.581 2°56.137 125.6 -999 271 7.5
2006-09-08 07:32:00 51°13.581 2°56.137 125.6 -999 299 7.5
2006-09-08 07:32:05 51°13.581 2°56.137 125.6 -999 57 7.5
2006-09-08 07:32:10 51°13.581 2°56.137 125.6 -999 117 7.5
2006-09-08 07:32:15 51°13.581 2°56.137 125.6 -999 108 5.6
2006-09-08 07:32:20 51°13.581 2°56.137 125.6 -999 319 7.6
2006-09-08 07:32:25 51°13.581 2°56.137 125.6 -999 93 7.5
2006-09-08 07:32:30 51°13.581 2°56.137 125.6 -999 329 7.5
2006-09-08 07:32:34 51°13.581 2°56.137 125.6 -999 300 7.5
2006-09-08 07:32:40 51°13.581 2°56.137 125.6 -999 316 7.5
2006-09-08 07:32:45 51°13.581 2°56.137 125.6 -999 100 7.5
2006-09-08 07:32:50 51°13.581 2°56.137 125.6 -999 276 -999
2006-09-08 07:32:55 51°13.581 2°56.137 125.6 -999 294 7.5
2006-09-08 07:33:00 51°13.581 2°56.137 125.6 -999 300 7.5
2006-09-08 07:33:05 51°13.581 2°56.137 125.6 -999 3 7.5
2006-09-08 07:33:10 51°13.581 2°56.137 125.6 -999 117 7.5
2006-09-08 07:33:15 51°13.581 2°56.137 125.6 -999 300 5.5
2006-09-08 07:33:20 51°13.581 2°56.137 125.6 -999 331 7.5
2006-09-08 07:33:25 51°13.581 2°56.137 125.6 -999 92 7.5
2006-09-08 07:33:30 51°13.581 2°56.137 125.6 -999 123 7.6
2006-09-08 07:33:34 51°13.581 2°56.137 125.6 -999 92 7.5
2006-09-08 07:33:40 51°13.581 2°56.137 125.5 -999 122 5.6
2006-09-08 07:33:45 51°13.581 2°56.137 125.5 -999 123 7.5
2006-09-08 07:33:50 51°13.581 2°56.138 125.5 -999 93 7.5
2006-09-08 07:33:55 51°13.581 2°56.138 125.5 -999 306 7.5
2006-09-08 07:34:00 51°13.581 2°56.138 125.5 -999 65 7.5
2006-09-08 07:34:05 51°13.581 2°56.138 125.5 -999 98 5.5
2006-09-08 07:34:10 51°13.581 2°56.138 125.5 -999 117 7.5
2006-09-08 07:34:15 51°13.581 2°56.138 125.5 -999 125 7.6
2006-09-08 07:34:20 51°13.581 2°56.138 125.5 -999 113 7.5
2006-09-08 07:34:24 51°13.581 2°56.138 125.5 -999 144 7.6
2006-09-08 07:34:30 51°13.581 2°56.138 125.5 -999 303 5.6
2006-09-08 07:34:35 51°13.581 2°56.138 125.5 -999 90 7.6
2006-09-08 07:34:40 51°13.581 2°56.138 125.5 -999 40 7.6
2006-09-08 07:34:44 51°13.581 2°56.138 125.5 -999 286 7.6
2006-09-08 07:34:50 51°13.581 2°56.138 125.5 -999 311 7.5
2006-09-08 07:34:55 51°13.581 2°56.138 125.5 -999 109 7.5
2006-09-08 07:35:00 51°13.581 2°56.139 125.5 -999 93 7.5
2006-09-08 07:35:04 51°13.581 2°56.139 125.5 -999 217 -999
2006-09-08 07:35:10 51°13.581 2°56.139 125.5 -999 14 7.5
2006-09-08 07:35:15 51°13.581 2°56.139 125.5 -999 85 7.5
2006-09-08 07:35:20 51°13.581 2°56.139 125.5 -999 112 7.5
2006-09-08 07:35:24 51°13.581 2°56.139 125.5 -999 98 7.6
2006-09-08 07:35:30 51°13.581 2°56.139 125.5 -999 266 7.5
2006-09-08 07:35:35 51°13.581 2°56.138 125.5 -999 291 7.5
2006-09-08 07:35:40 51°13.581 2°56.139 125.5 -999 23 5.6
2006-09-08 07:35:45 51°13.581 2°56.139 125.5 -999 109 7.5
2006-09-08 07:35:50 51°13.581 2°56.139 125.5 -999 110 7.7
2006-09-08 07:35:55 51°13.581 2°56.139 125.5 -999 158 7.6
2006-09-08 07:35:59 51°13.581 2°56.139 125.5 -999 326 7.5
2006-09-08 07:36:05 51°13.581 2°56.139 125.5 -999 289 7.5
2006-09-08 07:36:10 51°13.581 2°56.139 125.5 -999 117 7.6
2006-09-08 07:36:15 51°13.582 2°56.139 125.5 -999 312 7.5
2006-09-08 07:36:20 51°13.582 2°56.139 125.5 -999 90 7.6
2006-09-08 07:36:24 51°13.582 2°56.139 125.5 -999 344 7.6
2006-09-08 07:36:30 51°13.583 2°56.139 125.5 -999 108 7.6
2006-09-08 07:36:35 51°13.583 2°56.139 125.5 -999 118 7.5
2006-09-08 07:36:40 51°13.583 2°56.139 125.5 -999 118 5.6
2006-09-08 07:36:45 51°13.583 2°56.139 125.5 -999 278 7.6
2006-09-08 07:36:50 51°13.583 2°56.139 125.5 -999 275 5.6
2006-09-08 07:36:55 51°13.583 2°56.139 125.5 -999 34 7.6
2006-09-08 07:37:00 51°13.583 2°56.139 125.5 -999 95 5.6
2006-09-08 07:37:05 51°13.582 2°56.138 125.5 -999 356 7.6
2006-09-08 07:37:09 51°13.582 2°56.138 125.5 -999 52 7.6
2006-09-08 07:37:15 51°13.582 2°56.138 125.5 -999 97 7.6
2006-09-08 07:37:20 51°13.582 2°56.138 125.5 -999 96 7.6
2006-09-08 07:37:25 51°13.582 2°56.138 125.5 -999 317 7.6
2006-09-08 07:37:30 51°13.582 2°56.138 125.5 -999 305 5.6
2006-09-08 07:37:35 51°13.582 2°56.138 125.5 -999 29 7.6
2006-09-08 07:37:40 51°13.583 2°56.139 125.5 -999 320 5.5
2006-09-08 07:37:45 51°13.585 2°56.141 125.5 -999 338 7.6
2006-09-08 07:37:50 51°13.586 2°56.142 125.5 -999 311 7.6
2006-09-08 07:37:55 51°13.586 2°56.143 125.5 -999 332 7.6
2006-09-08 07:38:00 51°13.587 2°56.143 125.5 -999 267 7.6
2006-09-08 07:38:05 51°13.587 2°56.143 125.5 -999 122 7.6
2006-09-08 07:38:10 51°13.587 2°56.142 125.5 -999 115 7.6
2006-09-08 07:38:15 51°13.586 2°56.142 125.5 -999 173 7.6
2006-09-08 07:38:20 51°13.585 2°56.141 125.5 -999 125 7.6
2006-09-08 07:38:25 51°13.585 2°56.141 125.5 -999 151 7.6
2006-09-08 07:38:30 51°13.584 2°56.139 125.5 -999 194 7.6
2006-09-08 07:38:34 51°13.583 2°56.138 125.5 -999 124 5.6
2006-09-08 07:38:40 51°13.582 2°56.137 125.5 -999 121 7.6
2006-09-08 07:38:45 51°13.582 2°56.137 125.5 -999 239 7.6
2006-09-08 07:38:50 51°13.581 2°56.136 125.5 -999 229 7.6
2006-09-08 07:38:55 51°13.581 2°56.136 125.5 -999 212 7.6
2006-09-08 07:39:00 51°13.581 2°56.136 125.5 -999 251 7.6
2006-09-08 07:39:04 51°13.58 2°56.136 125.5 -999 179 7.6
2006-09-08 07:39:10 51°13.58 2°56.136 125.5 -999 223 7.6
2006-09-08 07:39:15 51°13.58 2°56.136 125.5 -999 183 7.6
2006-09-08 07:39:20 51°13.58 2°56.136 125.5 -999 205 7.6
2006-09-08 07:39:25 51°13.58 2°56.136 125.5 -999 121 7.6
2006-09-08 07:39:30 51°13.58 2°56.136 125.5 -999 164 7.6
2006-09-08 07:39:35 51°13.58 2°56.137 125.5 -999 125 7.6
2006-09-08 07:39:40 51°13.58 2°56.137 125.5 -999 200 7.6
2006-09-08 07:39:45 51°13.581 2°56.137 125.5 -999 350 7.6
2006-09-08 07:39:50 51°13.581 2°56.138 125.5 -999 337 7.6
2006-09-08 07:39:55 51°13.581 2°56.138 125.5 -999 20 7.6
2006-09-08 07:40:00 51°13.58 2°56.138 125.5 -999 182 7.6
2006-09-08 07:40:05 51°13.58 2°56.138 125.5 -999 173 7.6
2006-09-08 07:40:10 51°13.581 2°56.138 125.5 -999 170 7.5
2006-09-08 07:40:15 51°13.581 2°56.139 125.5 -999 347 7.6
2006-09-08 07:40:20 51°13.581 2°56.139 125.5 -999 352 7.7
2006-09-08 07:40:24 51°13.581 2°56.139 125.5 -999 185 7.6
2006-09-08 07:40:30 51°13.581 2°56.139 125.5 -999 82 7.6
2006-09-08 07:40:35 51°13.581 2°56.139 125.5 -999 180 7.6
2006-09-08 07:40:40 51°13.58 2°56.139 125.5 -999 358 7.6
2006-09-08 07:40:45 51°13.58 2°56.138 125.5 -999 340 7.6
2006-09-08 07:40:50 51°13.579 2°56.138 125.5 -999 185 7.6
2006-09-08 07:40:55 51°13.579 2°56.138 125.5 -999 170 7.6
2006-09-08 07:41:00 51°13.579 2°56.138 125.5 -999 181 7.6
2006-09-08 07:41:05 51°13.579 2°56.138 125.5 -999 188 7.6
2006-09-08 07:41:10 51°13.579 2°56.138 125.5 -999 179 7.6
2006-09-08 07:41:15 51°13.579 2°56.137 125.5 -999 169 7.6
2006-09-08 07:41:20 51°13.578 2°56.137 125.5 -999 353 7.6
2006-09-08 07:41:25 51°13.578 2°56.137 125.5 -999 203 7.6
2006-09-08 07:41:30 51°13.578 2°56.137 125.5 -999 171 7.6
2006-09-08 07:41:34 51°13.578 2°56.137 125.5 -999 39 7.6
2006-09-08 07:41:39 51°13.578 2°56.137 125.5 -999 148 7.6
2006-09-08 07:41:45 51°13.578 2°56.138 125.5 -999 160 7.6
2006-09-08 07:41:50 51°13.578 2°56.138 125.5 -999 177 7.6
2006-09-08 07:41:55 51°13.578 2°56.137 125.5 -999 287 7.6
2006-09-08 07:42:00 51°13.578 2°56.138 125.5 0.1 356 7.6
2006-09-08 07:42:04 51°13.578 2°56.138 125.5 -999 175 7.6
2006-09-08 07:42:10 51°13.578 2°56.138 125.5 -999 330 7.7
2006-09-08 07:42:15 51°13.578 2°56.138 125.4 -999 14 7.6
2006-09-08 07:42:20 51°13.579 2°56.138 125.4 -999 28 7.6
2006-09-08 07:42:24 51°13.579 2°56.138 125.4 -999 177 7.7
2006-09-08 07:42:30 51°13.578 2°56.138 125.4 0.1 189 7.6
2006-09-08 07:42:35 51°13.578 2°56.138 125.4 -999 160 7.6
2006-09-08 07:42:40 51°13.578 2°56.138 125.4 -999 194 7.6
2006-09-08 07:42:44 51°13.578 2°56.138 125.4 -999 332 7.7
2006-09-08 07:42:50 51°13.578 2°56.138 125.4 -999 -999 7.6
2006-09-08 07:42:55 51°13.578 2°56.138 125.4 0.1 179 7.7
2006-09-08 07:43:00 51°13.578 2°56.138 125.4 -999 191 7.7
2006-09-08 07:43:05 51°13.578 2°56.138 125.4 -999 221 7.7
2006-09-08 07:43:10 51°13.578 2°56.138 125.4 -999 322 7.7
2006-09-08 07:43:15 51°13.579 2°56.138 125.4 -999 210 7.7
2006-09-08 07:43:20 51°13.579 2°56.139 125.4 -999 181 7.6
2006-09-08 07:43:25 51°13.579 2°56.139 125.4 -999 12 7.7
2006-09-08 07:43:30 51°13.58 2°56.139 125.4 -999 356 7.6
2006-09-08 07:43:35 51°13.58 2°56.139 125.4 -999 146 7.7
2006-09-08 07:43:40 51°13.581 2°56.14 125.4 -999 94 7.6
2006-09-08 07:43:45 51°13.581 2°56.14 125.4 -999 189 7.7
2006-09-08 07:43:50 51°13.581 2°56.14 125.4 -999 306 7.7
2006-09-08 07:43:55 51°13.582 2°56.14 125.4 -999 182 7.7
2006-09-08 07:44:00 51°13.582 2°56.141 125.4 0.1 180 7.6
2006-09-08 07:44:05 51°13.582 2°56.141 125.4 -999 54 7.7
2006-09-08 07:44:10 51°13.583 2°56.141 125.4 -999 30 7.7
2006-09-08 07:44:15 51°13.583 2°56.141 125.4 -999 190 7.7
2006-09-08 07:44:20 51°13.583 2°56.141 125.4 -999 175 7.6
2006-09-08 07:44:24 51°13.583 2°56.141 125.4 -999 171 7.7
2006-09-08 07:44:30 51°13.584 2°56.141 125.4 -999 184 7.7
2006-09-08 07:44:35 51°13.584 2°56.141 125.4 -999 5 7.7
2006-09-08 07:44:40 51°13.584 2°56.141 125.4 -999 181 7.7
2006-09-08 07:44:44 51°13.584 2°56.141 125.4 -999 157 7.7
2006-09-08 07:44:49 51°13.584 2°56.141 125.4 -999 155 7.7
2006-09-08 07:44:55 51°13.584 2°56.141 125.4 -999 12 7.6
2006-09-08 07:45:00 51°13.584 2°56.141 125.4 -999 36 7.6
2006-09-08 07:45:04 51°13.583 2°56.141 125.4 -999 260 7.6
2006-09-08 07:45:10 51°13.584 2°56.141 125.4 -999 11 7.7
2006-09-08 07:45:15 51°13.584 2°56.14 125.4 -999 2 7.6
2006-09-08 07:45:20 51°13.584 2°56.14 125.4 -999 156 7.7
2006-09-08 07:45:25 51°13.584 2°56.141 125.4 -999 176 7.7
2006-09-08 07:45:30 51°13.584 2°56.141 125.4 -999 8 7.7
2006-09-08 07:45:35 51°13.584 2°56.141 125.4 -999 12 7.7
2006-09-08 07:45:40 51°13.584 2°56.141 125.4 -999 12 7.7
2006-09-08 07:45:45 51°13.584 2°56.14 125.4 -999 167 7.7
2006-09-08 07:45:50 51°13.584 2°56.14 125.4 -999 28 7.7
2006-09-08 07:45:55 51°13.584 2°56.14 125.4 -999 8 7.7
2006-09-08 07:46:00 51°13.583 2°56.14 125.4 -999 204 7.7
2006-09-08 07:46:04 51°13.583 2°56.14 125.4 -999 326 7.6
2006-09-08 07:46:10 51°13.583 2°56.141 125.4 -999 340 7.7
2006-09-08 07:46:15 51°13.583 2°56.14 125.4 -999 10 7.7
2006-09-08 07:46:20 51°13.583 2°56.14 125.4 -999 178 7.7
2006-09-08 07:46:24 51°13.583 2°56.14 125.4 0.1 182 7.7
2006-09-08 07:46:30 51°13.583 2°56.141 125.4 -999 174 7.7
2006-09-08 07:46:35 51°13.583 2°56.141 125.3 -999 3 7.7
2006-09-08 07:46:40 51°13.583 2°56.14 125.3 -999 186 7.7
2006-09-08 07:46:45 51°13.583 2°56.14 125.3 -999 12 7.7
2006-09-08 07:46:50 51°13.583 2°56.14 125.3 -999 167 7.7
2006-09-08 07:46:54 51°13.583 2°56.14 125.3 -999 64 7.7
2006-09-08 07:47:00 51°13.583 2°56.14 125.3 -999 156 7.7
2006-09-08 07:47:05 51°13.583 2°56.14 125.3 -999 4 7.6
2006-09-08 07:47:10 51°13.583 2°56.14 125.3 -999 344 7.7
2006-09-08 07:47:15 51°13.583 2°56.14 125.3 -999 359 7.6
2006-09-08 07:47:20 51°13.583 2°56.14 125.3 -999 159 7.8
2006-09-08 07:47:26 51°13.583 2°56.14 125.3 -999 148 7.7
2006-09-08 07:47:30 51°13.583 2°56.14 125.3 -999 183 7.7
2006-09-08 07:47:35 51°13.583 2°56.14 125.3 -999 179 7.8
2006-09-08 07:47:40 51°13.583 2°56.14 125.3 0.1 177 7.7
2006-09-08 07:47:44 51°13.583 2°56.14 125.3 -999 201 7.7
2006-09-08 07:47:50 51°13.583 2°56.14 125.3 -999 239 7.8
2006-09-08 07:47:55 51°13.583 2°56.14 125.3 -999 359 7.8
2006-09-08 07:48:00 51°13.583 2°56.14 125.3 -999 145 7.7
2006-09-08 07:48:05 51°13.583 2°56.14 125.3 -999 212 7.8
2006-09-08 07:48:10 51°13.584 2°56.14 125.3 -999 357 7.7
2006-09-08 07:48:15 51°13.584 2°56.139 125.3 -999 252 7.7
2006-09-08 07:48:20 51°13.584 2°56.139 125.3 -999 176 7.7
2006-09-08 07:48:24 51°13.584 2°56.139 125.3 -999 9 7.8
2006-09-08 07:48:30 51°13.581 2°56.137 125.3 -999 231 7.8
2006-09-08 07:48:35 51°13.58 2°56.136 125.3 -999 197 7.8
2006-09-08 07:48:40 51°13.58 2°56.136 125.3 -999 178 7.8
2006-09-08 07:48:44 51°13.58 2°56.136 125.3 -999 352 7.8
2006-09-08 07:48:50 51°13.58 2°56.136 125.3 -999 2 7.7
2006-09-08 07:48:55 51°13.58 2°56.136 125.3 -999 355 7.8
2006-09-08 07:49:00 51°13.58 2°56.136 125.3 -999 206 7.7
2006-09-08 07:49:05 51°13.58 2°56.136 125.3 -999 83 7.7
2006-09-08 07:49:10 51°13.579 2°56.136 125.3 0.1 172 7.8
2006-09-08 07:49:15 51°13.58 2°56.136 125.3 -999 130 7.7
2006-09-08 07:49:20 51°13.58 2°56.136 125.3 -999 184 7.8
2006-09-08 07:49:25 51°13.58 2°56.136 125.3 -999 20 7.7
2006-09-08 07:49:30 51°13.581 2°56.136 125.3 -999 348 7.7
2006-09-08 07:49:35 51°13.581 2°56.137 125.3 -999 230 7.7
2006-09-08 07:49:40 51°13.581 2°56.137 125.3 -999 9 7.7
2006-09-08 07:49:44 51°13.581 2°56.137 125.3 -999 177 7.7
2006-09-08 07:49:50 51°13.582 2°56.138 125.3 -999 135 7.7
2006-09-08 07:49:55 51°13.582 2°56.138 125.3 -999 130 7.8
2006-09-08 07:50:00 51°13.582 2°56.138 125.3 -999 188 7.8
2006-09-08 07:50:05 51°13.582 2°56.138 125.3 -999 201 7.8
2006-09-08 07:50:10 51°13.582 2°56.138 125.3 -999 215 7.7
2006-09-08 07:50:15 51°13.582 2°56.138 125.3 -999 160 7.7
2006-09-08 07:50:20 51°13.581 2°56.138 125.3 0.1 186 7.7
2006-09-08 07:50:24 51°13.582 2°56.138 125.3 -999 163 7.7
2006-09-08 07:50:30 51°13.582 2°56.138 125.3 -999 24 7.8
2006-09-08 07:50:35 51°13.582 2°56.138 125.3 0.1 9 7.7
2006-09-08 07:50:40 51°13.58 2°56.137 125.3 -999 349 7.8
2006-09-08 07:50:44 51°13.58 2°56.137 125.3 -999 183 7.7
2006-09-08 07:50:50 51°13.579 2°56.137 125.3 0.1 183 7.8
2006-09-08 07:50:55 51°13.579 2°56.137 125.3 -999 175 7.7
2006-09-08 07:51:00 51°13.58 2°56.137 125.3 -999 55 7.7
2006-09-08 07:51:04 51°13.58 2°56.137 125.3 -999 27 7.8
2006-09-08 07:51:09 51°13.58 2°56.137 125.3 -999 176 7.7
2006-09-08 07:51:14 51°13.58 2°56.137 125.3 -999 299 7.7
2006-09-08 07:51:20 51°13.58 2°56.137 125.3 -999 189 7.8
2006-09-08 07:51:26 51°13.58 2°56.137 125.3 -999 53 7.7
2006-09-08 07:51:30 51°13.579 2°56.136 125.3 -999 68 7.7
2006-09-08 07:51:35 51°13.579 2°56.136 125.3 0.1 187 7.8
2006-09-08 07:51:40 51°13.579 2°56.136 125.3 -999 193 7.7
2006-09-08 07:51:45 51°13.579 2°56.136 125.3 -999 151 7.8
2006-09-08 07:51:50 51°13.58 2°56.136 125.2 -999 60 7.9
2006-09-08 07:51:55 51°13.58 2°56.137 125.2 -999 15 7.7
2006-09-08 07:52:00 51°13.58 2°56.136 125.2 -999 94 7.8
2006-09-08 07:52:05 51°13.579 2°56.136 125.2 -999 173 7.7
2006-09-08 07:52:10 51°13.58 2°56.136 125.2 -999 7 7.8
2006-09-08 07:52:15 51°13.58 2°56.136 125.2 -999 356 7.8
2006-09-08 07:52:20 51°13.58 2°56.136 125.2 -999 4 7.8
2006-09-08 07:52:24 51°13.58 2°56.136 125.2 -999 143 7.7
2006-09-08 07:52:30 51°13.58 2°56.136 125.2 -999 22 7.8
2006-09-08 07:52:35 51°13.58 2°56.136 125.2 -999 164 7.7
2006-09-08 07:52:40 51°13.58 2°56.136 125.2 -999 181 7.8
2006-09-08 07:52:44 51°13.58 2°56.136 125.2 -999 65 7.7
2006-09-08 07:52:50 51°13.58 2°56.136 125.2 0.1 7 7.7
2006-09-08 07:52:55 51°13.579 2°56.136 125.2 -999 189 7.9
2006-09-08 07:53:00 51°13.579 2°56.136 125.2 -999 118 7.8
2006-09-08 07:53:05 51°13.58 2°56.136 125.2 -999 15 7.9
2006-09-08 07:53:10 51°13.58 2°56.136 125.2 -999 173 7.8
2006-09-08 07:53:15 51°13.58 2°56.136 125.2 -999 196 7.8
2006-09-08 07:53:20 51°13.58 2°56.136 125.2 -999 11 7.8
2006-09-08 07:53:25 51°13.58 2°56.136 125.2 -999 178 7.8
2006-09-08 07:53:30 51°13.58 2°56.136 125.2 -999 19 7.9
2006-09-08 07:53:35 51°13.58 2°56.136 125.2 -999 194 7.9
2006-09-08 07:53:39 51°13.58 2°56.136 125.2 -999 7 7.9
2006-09-08 07:53:45 51°13.58 2°56.136 125.2 -999 7 7.8
2006-09-08 07:53:50 51°13.58 2°56.136 125.2 -999 173 7.8
2006-09-08 07:53:55 51°13.579 2°56.136 125.2 -999 180 7.8
2006-09-08 07:54:00 51°13.579 2°56.136 125.2 -999 170 7.7
2006-09-08 07:54:05 51°13.579 2°56.136 125.2 -999 6 7.7
2006-09-08 07:54:10 51°13.579 2°56.136 125.2 -999 9 7.8
2006-09-08 07:54:15 51°13.579 2°56.136 125.2 -999 168 7.7
2006-09-08 07:54:20 51°13.579 2°56.136 125.2 -999 184 7.8
2006-09-08 07:54:25 51°13.579 2°56.137 125.2 -999 173 7.8
2006-09-08 07:54:30 51°13.579 2°56.137 125.2 -999 42 7.8
2006-09-08 07:54:35 51°13.578 2°56.137 125.2 -999 31 7.8
2006-09-08 07:54:40 51°13.578 2°56.137 125.2 -999 198 7.7
2006-09-08 07:54:44 51°13.578 2°56.137 125.2 -999 12 7.8
2006-09-08 07:54:50 51°13.578 2°56.137 125.2 -999 186 7.7
2006-09-08 07:54:55 51°13.578 2°56.137 125.2 -999 148 7.8
2006-09-08 07:55:00 51°13.578 2°56.137 125.2 -999 352 7.8
2006-09-08 07:55:05 51°13.578 2°56.137 125.2 -999 326 7.7
2006-09-08 07:55:10 51°13.578 2°56.137 125.2 -999 9 7.8
2006-09-08 07:55:15 51°13.578 2°56.137 125.2 -999 181 7.7
2006-09-08 07:55:20 51°13.578 2°56.137 125.3 -999 155 7.8
2006-09-08 07:55:25 51°13.578 2°56.137 125.3 -999 171 7.7
2006-09-08 07:55:30 51°13.578 2°56.137 125.3 -999 182 7.8
2006-09-08 07:55:35 51°13.578 2°56.137 125.3 -999 162 7.7
2006-09-08 07:55:40 51°13.578 2°56.137 125.3 -999 89 7.8
2006-09-08 07:55:45 51°13.578 2°56.137 125.3 -999 162 7.8
2006-09-08 07:55:50 51°13.578 2°56.137 125.3 -999 27 7.8
2006-09-08 07:55:55 51°13.578 2°56.137 125.3 -999 100 7.8
2006-09-08 07:56:00 51°13.578 2°56.137 125.3 -999 18 7.8
2006-09-08 07:56:05 51°13.578 2°56.137 125.3 -999 9 7.8
2006-09-08 07:56:10 51°13.578 2°56.137 125.3 0.1 218 7.7
2006-09-08 07:56:15 51°13.578 2°56.137 125.3 0.1 328 7.7
2006-09-08 07:56:19 51°13.578 2°56.136 125.3 -999 192 7.8
2006-09-08 07:56:25 51°13.579 2°56.135 125.3 -999 183 7.7
2006-09-08 07:56:30 51°13.579 2°56.135 125.3 -999 214 7.8
2006-09-08 07:56:35 51°13.58 2°56.134 125.3 -999 190 7.8
2006-09-08 07:56:40 51°13.58 2°56.133 125.3 -999 173 7.8
2006-09-08 07:56:44 51°13.58 2°56.133 125.3 -999 11 7.7
2006-09-08 07:56:50 51°13.58 2°56.133 125.3 -999 5 7.8
2006-09-08 07:56:55 51°13.58 2°56.132 125.3 -999 177 7.8
2006-09-08 07:57:00 51°13.581 2°56.132 125.3 -999 337 7.8
2006-09-08 07:57:04 51°13.581 2°56.132 125.3 0.1 182 7.7
2006-09-08 07:57:09 51°13.581 2°56.132 125.3 -999 23 7.7
2006-09-08 07:57:15 51°13.581 2°56.132 125.3 -999 188 7.8
2006-09-08 07:57:20 51°13.58 2°56.132 125.3 -999 182 7.7
2006-09-08 07:57:24 51°13.58 2°56.132 125.3 -999 184 7.7
2006-09-08 07:57:30 51°13.58 2°56.132 125.3 -999 184 7.8
2006-09-08 07:57:35 51°13.58 2°56.132 125.3 -999 197 7.8
2006-09-08 07:57:40 51°13.58 2°56.132 125.3 -999 194 7.8
2006-09-08 07:57:45 51°13.58 2°56.132 125.3 -999 179 7.7
2006-09-08 07:57:50 51°13.58 2°56.132 125.3 -999 44 7.8
2006-09-08 07:57:55 51°13.58 2°56.132 125.3 0.1 182 7.8
2006-09-08 07:58:00 51°13.581 2°56.133 125.3 -999 1 7.8
2006-09-08 07:58:05 51°13.58 2°56.133 125.3 -999 266 7.8
2006-09-08 07:58:10 51°13.58 2°56.133 125.3 -999 187 7.7
2006-09-08 07:58:15 51°13.581 2°56.133 125.3 -999 6 7.7
2006-09-08 07:58:20 51°13.581 2°56.133 125.3 -999 271 7.7
2006-09-08 07:58:25 51°13.581 2°56.133 125.3 -999 198 7.8
2006-09-08 07:58:30 51°13.581 2°56.134 125.3 -999 175 7.9
2006-09-08 07:58:35 51°13.581 2°56.134 125.3 -999 355 7.7
2006-09-08 07:58:40 51°13.581 2°56.134 125.3 -999 266 7.8
2006-09-08 07:58:44 51°13.581 2°56.134 125.3 -999 179 7.7
2006-09-08 07:58:50 51°13.581 2°56.134 125.3 -999 149 7.7
2006-09-08 07:58:55 51°13.581 2°56.134 125.3 -999 244 7.9
2006-09-08 07:59:00 51°13.581 2°56.134 125.3 -999 167 7.7
2006-09-08 07:59:04 51°13.581 2°56.134 125.3 -999 44 7.8
2006-09-08 07:59:10 51°13.581 2°56.134 125.3 -999 19 7.9
2006-09-08 07:59:15 51°13.581 2°56.134 125.3 -999 185 7.8
2006-09-08 07:59:20 51°13.581 2°56.134 125.3 0.1 182 7.7
2006-09-08 07:59:25 51°13.581 2°56.134 125.3 -999 234 7.8
2006-09-08 07:59:30 51°13.581 2°56.134 125.3 -999 -999 7.8
2006-09-08 07:59:35 51°13.581 2°56.134 125.3 -999 342 7.7
2006-09-08 07:59:40 51°13.581 2°56.134 125.3 -999 175 7.8
2006-09-08 07:59:44 51°13.581 2°56.134 125.3 -999 137 7.7
2006-09-08 07:59:50 51°13.581 2°56.134 125.3 -999 255 7.7
2006-09-08 07:59:55 51°13.581 2°56.134 125.3 -999 9 7.9
2006-09-08 08:00:00 51°13.581 2°56.134 125.3 0.1 6 7.8
2006-09-08 08:00:04 51°13.581 2°56.134 125.3 -999 160 7.8
2006-09-08 08:00:10 51°13.581 2°56.134 125.3 -999 19 7.7
2006-09-08 08:00:15 51°13.581 2°56.134 125.3 -999 186 7.8
2006-09-08 08:00:20 51°13.581 2°56.134 125.3 -999 174 7.8
2006-09-08 08:00:25 51°13.581 2°56.134 125.3 -999 332 7.7
2006-09-08 08:00:30 51°13.581 2°56.134 125.3 -999 241 7.7
2006-09-08 08:00:35 51°13.581 2°56.134 125.3 -999 1 7.7
2006-09-08 08:00:40 51°13.581 2°56.134 125.3 -999 347 7.7
2006-09-08 08:00:45 51°13.581 2°56.134 125.3 -999 159 7.7
2006-09-08 08:00:50 51°13.581 2°56.134 125.3 -999 191 7.7
2006-09-08 08:00:55 51°13.581 2°56.134 125.3 -999 127 7.8
2006-09-08 08:01:00 51°13.581 2°56.134 125.3 -999 186 7.9
2006-09-08 08:01:05 51°13.582 2°56.134 125.3 -999 4 7.7
2006-09-08 08:01:10 51°13.582 2°56.134 125.3 -999 161 7.7
2006-09-08 08:01:15 51°13.582 2°56.134 125.3 -999 177 7.7
2006-09-08 08:01:20 51°13.582 2°56.134 125.3 -999 6 7.7
2006-09-08 08:01:25 51°13.582 2°56.134 125.3 -999 84 7.8
2006-09-08 08:01:30 51°13.582 2°56.135 125.3 -999 47 7.9
2006-09-08 08:01:35 51°13.582 2°56.135 125.3 -999 8 7.7
2006-09-08 08:01:40 51°13.582 2°56.135 125.3 -999 145 7.7
2006-09-08 08:01:45 51°13.582 2°56.135 125.3 -999 341 7.8
2006-09-08 08:01:50 51°13.582 2°56.135 125.3 -999 171 7.8
2006-09-08 08:01:55 51°13.582 2°56.135 125.3 -999 178 7.7
2006-09-08 08:02:00 51°13.582 2°56.135 125.3 -999 87 7.7
2006-09-08 08:02:05 51°13.582 2°56.135 125.3 -999 168 7.8
2006-09-08 08:02:10 51°13.582 2°56.135 125.3 0.1 184 7.9
2006-09-08 08:02:14 51°13.582 2°56.135 125.3 -999 15 7.7
2006-09-08 08:02:19 51°13.582 2°56.136 125.3 -999 35 7.7
2006-09-08 08:02:25 51°13.583 2°56.136 125.3 -999 10 7.7
2006-09-08 08:02:29 51°13.583 2°56.136 125.3 0.1 8 7.7
2006-09-08 08:02:35 51°13.583 2°56.136 125.3 0.1 -999 7.7
2006-09-08 08:02:40 51°13.583 2°56.136 125.3 -999 118 7.7
2006-09-08 08:02:45 51°13.583 2°56.136 125.3 -999 17 7.7
2006-09-08 08:02:50 51°13.583 2°56.136 125.3 -999 217 7.7
2006-09-08 08:02:55 51°13.583 2°56.136 125.3 -999 184 7.7
2006-09-08 08:03:00 51°13.583 2°56.136 125.3 -999 173 7.7
2006-09-08 08:03:04 51°13.583 2°56.136 125.3 -999 8 7.7
2006-09-08 08:03:10 51°13.581 2°56.135 125.3 -999 36 7.7
2006-09-08 08:03:15 51°13.58 2°56.135 125.3 -999 357 7.9
2006-09-08 08:03:20 51°13.58 2°56.135 125.3 -999 32 7.8
2006-09-08 08:03:25 51°13.58 2°56.135 125.3 -999 142 7.8
2006-09-08 08:03:30 51°13.58 2°56.135 125.3 -999 113 7.7
2006-09-08 08:03:35 51°13.58 2°56.135 125.3 -999 177 7.8
2006-09-08 08:03:40 51°13.581 2°56.135 125.3 -999 109 7.7
2006-09-08 08:03:44 51°13.581 2°56.135 125.3 -999 12 7.7
2006-09-08 08:03:50 51°13.58 2°56.135 125.3 -999 139 7.7
2006-09-08 08:03:55 51°13.58 2°56.135 125.3 -999 169 7.7
2006-09-08 08:04:00 51°13.581 2°56.135 125.3 -999 173 7.8
2006-09-08 08:04:05 51°13.581 2°56.136 125.3 -999 158 7.7
2006-09-08 08:04:10 51°13.581 2°56.136 125.3 -999 146 7.7
2006-09-08 08:04:15 51°13.581 2°56.136 125.3 -999 30 7.8
2006-09-08 08:04:20 51°13.58 2°56.135 125.3 -999 224 7.7
2006-09-08 08:04:25 51°13.58 2°56.135 125.3 -999 166 8
2006-09-08 08:04:29 51°13.58 2°56.135 125.3 -999 67 7.8
2006-09-08 08:04:35 51°13.581 2°56.135 125.3 -999 35 7.7
2006-09-08 08:04:40 51°13.581 2°56.136 125.3 -999 77 7.8
2006-09-08 08:04:45 51°13.581 2°56.136 125.3 -999 7 7.7
2006-09-08 08:04:50 51°13.581 2°56.136 125.3 -999 170 7.8
2006-09-08 08:04:55 51°13.581 2°56.136 125.3 -999 41 7.7
2006-09-08 08:05:00 51°13.582 2°56.136 125.3 -999 9 7.7
2006-09-08 08:05:04 51°13.582 2°56.136 125.3 -999 181 7.8
2006-09-08 08:05:09 51°13.582 2°56.136 125.3 -999 176 7.7
2006-09-08 08:05:15 51°13.581 2°56.136 125.3 -999 4 7.8
2006-09-08 08:05:20 51°13.581 2°56.136 125.3 -999 171 7.8
2006-09-08 08:05:25 51°13.581 2°56.136 125.3 -999 174 7.7
2006-09-08 08:05:30 51°13.581 2°56.136 125.3 -999 140 7.8
2006-09-08 08:05:35 51°13.581 2°56.136 125.3 -999 151 7.8
2006-09-08 08:05:40 51°13.581 2°56.135 125.3 -999 187 7.8
2006-09-08 08:05:45 51°13.581 2°56.135 125.3 -999 188 7.8
2006-09-08 08:05:50 51°13.582 2°56.136 125.3 -999 181 7.8
2006-09-08 08:05:55 51°13.582 2°56.136 125.3 -999 17 7
2006-09-08 08:06:00 51°13.582 2°56.136 125.3 -999 74 7.8
2006-09-08 08:06:05 51°13.582 2°56.136 125.3 -999 41 7.8
2006-09-08 08:06:10 51°13.582 2°56.135 125.3 -999 174 7.8
2006-09-08 08:06:15 51°13.582 2°56.135 125.3 -999 4 7.7
2006-09-08 08:06:20 51°13.582 2°56.135 125.3 -999 22 7.7
2006-09-08 08:06:25 51°13.582 2°56.135 125.3 -999 31 7.8
2006-09-08 08:06:30 51°13.582 2°56.135 125.3 -999 12 8
2006-09-08 08:06:35 51°13.582 2°56.135 125.3 -999 137 7.8
2006-09-08 08:06:40 51°13.582 2°56.135 125.3 -999 156 7.8
2006-09-08 08:06:45 51°13.582 2°56.135 125.3 -999 163 7.8
2006-09-08 08:06:50 51°13.582 2°56.136 125.3 -999 184 7.8
2006-09-08 08:06:55 51°13.582 2°56.136 125.3 -999 184 7.8
2006-09-08 08:07:00 51°13.583 2°56.136 125.3 -999 165 7.8
2006-09-08 08:07:04 51°13.582 2°56.136 125.3 -999 146 7.8
2006-09-08 08:07:10 51°13.582 2°56.136 125.3 -999 159 7.8
2006-09-08 08:07:15 51°13.582 2°56.136 125.3 -999 9 7.7
2006-09-08 08:07:20 51°13.582 2°56.136 125.3 -999 162 7.7
2006-09-08 08:07:25 51°13.582 2°56.136 125.3 0.1 181 7.7
2006-09-08 08:07:30 51°13.582 2°56.136 125.3 -999 185 7.8
2006-09-08 08:07:35 51°13.582 2°56.136 125.3 -999 22 7.8
2006-09-08 08:07:40 51°13.582 2°56.136 125.3 -999 351 7.8
2006-09-08 08:07:44 51°13.582 2°56.136 125.3 -999 183 7.8
2006-09-08 08:07:49 51°13.582 2°56.136 125.3 -999 12 7.7
2006-09-08 08:07:55 51°13.582 2°56.136 125.3 -999 3 7.8
2006-09-08 08:08:00 51°13.582 2°56.136 125.3 -999 178 7.8
2006-09-08 08:08:05 51°13.582 2°56.136 125.3 -999 12 7.8
2006-09-08 08:08:09 51°13.582 2°56.136 125.3 -999 99 7.8
2006-09-08 08:08:15 51°13.582 2°56.136 125.3 -999 169 7.8
2006-09-08 08:08:20 51°13.582 2°56.136 125.3 -999 20 7.8
2006-09-08 08:08:25 51°13.582 2°56.136 125.3 -999 24 7.8
2006-09-08 08:08:29 51°13.583 2°56.136 125.3 -999 333 7.8
2006-09-08 08:08:35 51°13.583 2°56.136 125.3 -999 20 7.8
2006-09-08 08:08:40 51°13.583 2°56.136 125.3 -999 167 7.8
2006-09-08 08:08:45 51°13.583 2°56.136 125.3 -999 244 7.8
2006-09-08 08:08:50 51°13.583 2°56.136 125.3 -999 346 7.8
2006-09-08 08:08:55 51°13.583 2°56.136 125.3 -999 169 7.8
2006-09-08 08:09:00 51°13.583 2°56.136 125.3 -999 156 7.8
2006-09-08 08:09:05 51°13.583 2°56.136 125.3 -999 162 7.8
2006-09-08 08:09:10 51°13.583 2°56.136 125.3 -999 202 7.8
2006-09-08 08:09:15 51°13.583 2°56.136 125.3 -999 186 7.8
2006-09-08 08:09:20 51°13.584 2°56.136 125.3 -999 174 7.8
2006-09-08 08:09:25 51°13.584 2°56.136 125.3 -999 20 7.8
2006-09-08 08:09:30 51°13.584 2°56.136 125.3 -999 2 7.8
2006-09-08 08:09:35 51°13.584 2°56.136 125.3 -999 172 7.8
2006-09-08 08:09:40 51°13.584 2°56.136 125.3 -999 164 7.8
2006-09-08 08:09:45 51°13.584 2°56.136 125.3 -999 163 7.8
2006-09-08 08:09:50 51°13.584 2°56.136 125.3 -999 162 7.8
2006-09-08 08:09:55 51°13.584 2°56.136 125.3 -999 177 7.8
2006-09-08 08:10:00 51°13.584 2°56.136 125.3 -999 137 7.8
2006-09-08 08:10:04 51°13.583 2°56.136 125.3 -999 161 7.8
2006-09-08 08:10:10 51°13.583 2°56.136 125.3 -999 44 7.8
2006-09-08 08:10:15 51°13.583 2°56.136 125.3 -999 43 7.8
2006-09-08 08:10:20 51°13.583 2°56.136 125.3 -999 158 7.8
2006-09-08 08:10:25 51°13.583 2°56.136 125.3 -999 67 7.8
2006-09-08 08:10:30 51°13.583 2°56.136 125.3 -999 24 7.8
2006-09-08 08:10:35 51°13.583 2°56.136 125.3 -999 182 7.8
2006-09-08 08:10:40 51°13.583 2°56.136 125.3 -999 215 7.8
2006-09-08 08:10:44 51°13.583 2°56.136 125.3 -999 93 7.8
2006-09-08 08:10:49 51°13.583 2°56.136 125.3 -999 17 7.8
2006-09-08 08:10:55 51°13.582 2°56.135 125.3 -999 14 7.8
2006-09-08 08:11:00 51°13.581 2°56.135 125.3 -999 173 7.8
2006-09-08 08:11:05 51°13.581 2°56.135 125.3 -999 179 7.8
2006-09-08 08:11:10 51°13.581 2°56.135 125.3 -999 173 7.8
2006-09-08 08:11:15 51°13.581 2°56.135 125.3 -999 172 7.8
2006-09-08 08:11:20 51°13.581 2°56.135 125.3 -999 166 7.8
2006-09-08 08:11:25 51°13.581 2°56.135 125.3 -999 180 7.8
2006-09-08 08:11:30 51°13.581 2°56.135 125.3 -999 357 7.8
2006-09-08 08:11:35 51°13.581 2°56.135 125.3 -999 169 8
2006-09-08 08:11:40 51°13.581 2°56.135 125.3 -999 174 7.8
2006-09-08 08:11:45 51°13.581 2°56.135 125.3 -999 143 8
2006-09-08 08:11:50 51°13.581 2°56.135 125.3 -999 24 7.8
2006-09-08 08:11:55 51°13.581 2°56.135 125.3 -999 175 7.8
2006-09-08 08:12:00 51°13.581 2°56.135 125.3 -999 165 7.8
2006-09-08 08:12:04 51°13.581 2°56.135 125.3 -999 167 7.8
2006-09-08 08:12:10 51°13.581 2°56.135 125.3 0.1 179 7.8
2006-09-08 08:12:15 51°13.581 2°56.135 125.3 -999 167 7.8
2006-09-08 08:12:20 51°13.581 2°56.136 125.3 0.1 8 7.8
2006-09-08 08:12:25 51°13.581 2°56.136 125.3 -999 40 7.8
2006-09-08 08:12:30 51°13.581 2°56.136 125.3 0.1 172 7.8
2006-09-08 08:12:35 51°13.581 2°56.136 125.3 -999 184 8
2006-09-08 08:12:40 51°13.581 2°56.136 125.3 -999 174 7.8
2006-09-08 08:12:44 51°13.581 2°56.136 125.3 -999 149 7.8
2006-09-08 08:12:49 51°13.581 2°56.136 125.3 -999 180 7.8
2006-09-08 08:12:55 51°13.581 2°56.136 125.3 -999 187 7.8
2006-09-08 08:13:00 51°13.581 2°56.136 125.3 0.1 357 7.8
2006-09-08 08:13:06 51°13.581 2°56.136 125.3 -999 4 7.8
2006-09-08 08:13:10 51°13.581 2°56.136 125.3 -999 115 7.8
2006-09-08 08:13:15 51°13.581 2°56.136 125.3 -999 174 8
2006-09-08 08:13:20 51°13.581 2°56.136 125.3 0.1 176 7.8
2006-09-08 08:13:25 51°13.581 2°56.136 125.3 -999 186 7.8
2006-09-08 08:13:30 51°13.581 2°56.136 125.3 0.1 174 7.8
2006-09-08 08:13:35 51°13.582 2°56.136 125.3 -999 166 7.8
2006-09-08 08:13:40 51°13.582 2°56.136 125.3 -999 184 7.8
2006-09-08 08:13:44 51°13.582 2°56.136 125.3 -999 4 7.8
2006-09-08 08:13:50 51°13.582 2°56.137 125.3 -999 39 7.8
2006-09-08 08:13:55 51°13.581 2°56.136 125.3 -999 35 7.8
2006-09-08 08:14:00 51°13.58 2°56.136 125.3 -999 23 7.8
2006-09-08 08:14:04 51°13.58 2°56.135 125.3 -999 154 7.8
2006-09-08 08:14:10 51°13.58 2°56.135 125.3 -999 230 7.8
2006-09-08 08:14:15 51°13.58 2°56.135 125.3 -999 347 7.8
2006-09-08 08:14:20 51°13.58 2°56.135 125.3 -999 160 7.8
2006-09-08 08:14:25 51°13.58 2°56.135 125.3 -999 107 8
2006-09-08 08:14:30 51°13.58 2°56.135 125.3 -999 24 7.8
2006-09-08 08:14:35 51°13.58 2°56.135 125.3 -999 96 7.8
2006-09-08 08:14:40 51°13.58 2°56.135 125.3 -999 10 7.8
2006-09-08 08:14:45 51°13.58 2°56.135 125.3 -999 160 7.8
2006-09-08 08:14:50 51°13.58 2°56.135 125.3 -999 170 7.8
2006-09-08 08:14:54 51°13.58 2°56.135 125.3 -999 139 7.8
2006-09-08 08:15:00 51°13.58 2°56.136 125.3 -999 150 7.8
2006-09-08 08:15:05 51°13.58 2°56.136 125.3 -999 170 8.1
2006-09-08 08:15:10 51°13.58 2°56.136 125.3 -999 185 7.8
2006-09-08 08:15:15 51°13.58 2°56.136 125.3 -999 13 8.1
2006-09-08 08:15:20 51°13.58 2°56.136 125.3 0.1 8 7.9
2006-09-08 08:15:25 51°13.58 2°56.136 125.3 -999 12 7.8
2006-09-08 08:15:30 51°13.58 2°56.136 125.3 -999 177 8
2006-09-08 08:15:35 51°13.58 2°56.136 125.3 -999 160 7.9
2006-09-08 08:15:40 51°13.58 2°56.136 125.3 -999 186 8
2006-09-08 08:15:45 51°13.58 2°56.136 125.3 -999 179 8.1
2006-09-08 08:15:50 51°13.58 2°56.135 125.3 -999 175 7.8
2006-09-08 08:15:55 51°13.58 2°56.135 125.3 -999 134 8.1
2006-09-08 08:16:00 51°13.58 2°56.136 125.3 0.1 12 7.9
2006-09-08 08:16:03 51°13.58 2°56.136 125.3 -999 184 8.1
2006-09-08 08:16:10 51°13.58 2°56.136 125.3 -999 172 7.9
2006-09-08 08:16:15 51°13.58 2°56.136 125.3 -999 169 7.9
2006-09-08 08:16:20 51°13.58 2°56.136 125.3 -999 139 8.1
2006-09-08 08:16:24 51°13.58 2°56.136 125.3 -999 152 7.9
2006-09-08 08:16:30 51°13.58 2°56.136 125.3 -999 186 8.1
2006-09-08 08:16:35 51°13.58 2°56.136 125.3 -999 164 8.1
2006-09-08 08:16:40 51°13.58 2°56.136 125.3 -999 15 7.9
2006-09-08 08:16:45 51°13.58 2°56.136 125.3 -999 5 8
2006-09-08 08:16:50 51°13.58 2°56.136 125.3 -999 57 8
2006-09-08 08:16:54 51°13.58 2°56.136 125.3 -999 211 8.1
2006-09-08 08:16:59 51°13.58 2°56.136 125.3 -999 19 8.1
2006-09-08 08:17:05 51°13.58 2°56.136 125.3 -999 32 8.1
2006-09-08 08:17:10 51°13.58 2°56.136 125.3 -999 207 8.1
2006-09-08 08:17:15 51°13.58 2°56.136 125.3 -999 243 7.8
2006-09-08 08:17:20 51°13.58 2°56.136 125.3 -999 30 7.9
2006-09-08 08:17:25 51°13.58 2°56.136 125.3 -999 42 8
2006-09-08 08:17:30 51°13.58 2°56.136 125.3 -999 212 8
2006-09-08 08:17:35 51°13.58 2°56.136 125.3 -999 23 8
2006-09-08 08:17:40 51°13.58 2°56.136 125.3 -999 35 7.9
2006-09-08 08:17:45 51°13.58 2°56.136 125.3 -999 205 8
2006-09-08 08:17:49 51°13.58 2°56.136 125.3 -999 223 8
2006-09-08 08:17:55 51°13.58 2°56.136 125.3 -999 30 8.1
2006-09-08 08:18:00 51°13.58 2°56.136 125.3 -999 189 8
2006-09-08 08:18:05 51°13.58 2°56.136 125.3 -999 211 7.9
2006-09-08 08:18:08 51°13.58 2°56.136 125.3 -999 18 8.1
2006-09-08 08:18:15 51°13.568 2°56.132 125.3 -999 302 7.9
2006-09-08 08:18:20 51°13.574 2°56.128 125.3 -999 1 8.1
2006-09-08 08:18:24 51°13.576 2°56.126 125.3 0.2 110 8.1
2006-09-08 08:18:30 51°13.575 2°56.135 125.3 -999 127 7.9
2006-09-08 08:18:35 51°13.575 2°56.134 125.3 -999 188 8.1
2006-09-08 08:18:40 51°13.576 2°56.134 125.3 -999 25 7.9
2006-09-08 08:18:45 51°13.577 2°56.133 125.3 -999 58 8
2006-09-08 08:18:50 51°13.577 2°56.133 125.3 -999 19 7.8
2006-09-08 08:18:55 51°13.577 2°56.133 125.3 -999 166 8
2006-09-08 08:19:00 51°13.578 2°56.133 125.3 -999 5 7.8
2006-09-08 08:19:04 51°13.578 2°56.133 125.3 -999 23 8
2006-09-08 08:19:10 51°13.578 2°56.133 125.3 -999 32 7.8
2006-09-08 08:19:15 51°13.579 2°56.133 125.3 -999 3 8.1
2006-09-08 08:19:20 51°13.578 2°56.134 125.3 -999 35 8.1
2006-09-08 08:19:25 51°13.578 2°56.134 125.3 -999 171 7.9
2006-09-08 08:19:30 51°13.578 2°56.134 125.3 -999 141 7.9
2006-09-08 08:19:35 51°13.578 2°56.135 125.3 -999 195 7.9
2006-09-08 08:19:40 51°13.578 2°56.135 125.3 -999 182 8
2006-09-08 08:19:44 51°13.579 2°56.135 125.3 0.1 13 7.9
2006-09-08 08:19:49 51°13.578 2°56.135 125.3 -999 305 8
2006-09-08 08:19:55 51°13.578 2°56.135 125.3 -999 159 8
2006-09-08 08:20:00 51°13.578 2°56.135 125.3 -999 99 8.1
2006-09-08 08:20:05 51°13.578 2°56.135 125.3 -999 353 8
2006-09-08 08:20:10 51°13.579 2°56.135 125.3 -999 147 8
2006-09-08 08:20:15 51°13.579 2°56.135 125.3 -999 170 8.1
2006-09-08 08:20:20 51°13.579 2°56.135 125.3 -999 3 8.1
2006-09-08 08:20:25 51°13.58 2°56.135 125.3 -999 21 8.1
2006-09-08 08:20:30 51°13.58 2°56.135 125.3 -999 3 7.9
2006-09-08 08:20:35 51°13.58 2°56.135 125.3 0.1 8 7.9
2006-09-08 08:20:40 51°13.58 2°56.136 125.3 -999 129 8
2006-09-08 08:20:45 51°13.58 2°56.136 125.3 -999 306 7.9
2006-09-08 08:20:50 51°13.58 2°56.136 125.3 -999 173 8.1
2006-09-08 08:20:55 51°13.58 2°56.136 125.3 -999 143 8
2006-09-08 08:21:00 51°13.581 2°56.136 125.3 -999 162 8.1
2006-09-08 08:21:04 51°13.581 2°56.136 125.3 -999 307 8
2006-09-08 08:21:10 51°13.581 2°56.136 125.3 -999 169 7.9
2006-09-08 08:21:15 51°13.58 2°56.136 125.3 -999 151 8
2006-09-08 08:21:20 51°13.58 2°56.136 125.3 -999 213 8
2006-09-08 08:21:25 51°13.58 2°56.136 125.3 -999 168 8.1
2006-09-08 08:21:30 51°13.58 2°56.136 125.3 -999 13 7.9
2006-09-08 08:21:35 51°13.58 2°56.136 125.3 -999 354 8
2006-09-08 08:21:40 51°13.58 2°56.136 125.3 -999 75 7.9
2006-09-08 08:21:44 51°13.58 2°56.136 125.3 -999 154 7.9
2006-09-08 08:21:49 51°13.58 2°56.136 125.3 -999 169 8
2006-09-08 08:21:55 51°13.58 2°56.136 125.3 -999 9 7.9
2006-09-08 08:22:00 51°13.58 2°56.136 125.3 -999 185 8
2006-09-08 08:22:05 51°13.58 2°56.136 125.3 -999 185 8
2006-09-08 08:22:10 51°13.58 2°56.136 125.3 -999 163 7.9
2006-09-08 08:22:15 51°13.58 2°56.136 125.3 -999 25 8
2006-09-08 08:22:20 51°13.58 2°56.136 125.3 -999 143 8
2006-09-08 08:22:25 51°13.58 2°56.136 125.3 -999 156 8
2006-09-08 08:22:30 51°13.58 2°56.136 125.3 -999 40 7.9
2006-09-08 08:22:35 51°13.58 2°56.136 125.3 -999 347 8.1
2006-09-08 08:22:40 51°13.58 2°56.136 125.3 -999 9 8
2006-09-08 08:22:45 51°13.58 2°56.136 125.3 -999 9 7.9
2006-09-08 08:22:50 51°13.58 2°56.136 125.3 -999 28 8
2006-09-08 08:22:55 51°13.58 2°56.136 125.3 -999 25 8.1
2006-09-08 08:23:00 51°13.58 2°56.136 125.3 -999 7 8
2006-09-08 08:23:05 51°13.58 2°56.136 125.3 -999 11 7.9
2006-09-08 08:23:10 51°13.58 2°56.136 125.3 -999 75 8
2006-09-08 08:23:15 51°13.58 2°56.136 125.3 -999 18 8.1
2006-09-08 08:23:20 51°13.58 2°56.136 125.3 -999 1 8
2006-09-08 08:23:25 51°13.58 2°56.136 125.3 -999 16 7.9
2006-09-08 08:23:30 51°13.58 2°56.136 125.3 -999 292 8
2006-09-08 08:23:35 51°13.58 2°56.136 125.3 -999 12 8
2006-09-08 08:23:40 51°13.58 2°56.136 125.3 -999 359 8
2006-09-08 08:23:45 51°13.58 2°56.137 125.3 -999 14 8.1
2006-09-08 08:23:50 51°13.581 2°56.137 125.3 -999 17 8
2006-09-08 08:23:55 51°13.581 2°56.137 125.3 -999 18 8.1
2006-09-08 08:24:00 51°13.581 2°56.137 125.3 -999 8 8
2006-09-08 08:24:04 51°13.581 2°56.137 125.3 -999 284 8.1
2006-09-08 08:24:09 51°13.581 2°56.137 125.3 -999 271 8
2006-09-08 08:24:15 51°13.581 2°56.137 125.3 -999 12 7.9
2006-09-08 08:24:20 51°13.581 2°56.137 125.3 -999 223 8
2006-09-08 08:24:25 51°13.58 2°56.137 125.3 -999 214 8
2006-09-08 08:24:29 51°13.58 2°56.137 125.3 -999 20 8
2006-09-08 08:24:35 51°13.58 2°56.137 125.3 -999 345 8
2006-09-08 08:24:40 51°13.58 2°56.137 125.3 -999 5 8.1